Time;durP1;ratioP1;P1;durP2;ratioP2;P2;SDS_P1;SDS_P2;PMS_P1;PMS_P2;Temp;Humidity;BMP_temperature;BMP_pressure;BME280_temperature;BME280_humidity;BME280_pressure;Samples;Min_cycle;Max_cycle;Signal;HPM_P1;HPM_P2
2022/11/02 00:00:29;;;;;;;26.60;18.63;;;;;;;40.11;37.95;101035.41;4924817;28;20433;-71
2022/11/02 00:02:55;;;;;;;24.57;17.63;;;;;;;40.19;37.90;101031.91;4956489;28;21000;-71
2022/11/02 00:05:24;;;;;;;29.30;16.97;;;;;;;40.01;38.24;101020.16;4956245;28;20950;-71
2022/11/02 00:07:52;;;;;;;25.77;18.27;;;;;;;40.46;37.30;101024.56;4960466;28;20422;-72
2022/11/02 00:10:19;;;;;;;28.97;19.07;;;;;;;40.23;37.15;101015.75;4978152;28;20497;-72
2022/11/02 00:12:46;;;;;;;22.23;16.50;;;;;;;39.52;38.75;101012.34;4944434;28;20497;-71
2022/11/02 00:15:12;;;;;;;31.30;19.10;;;;;;;39.87;38.20;101014.06;4978076;28;20444;-72
2022/11/02 00:17:41;;;;;;;24.33;17.10;;;;;;;40.40;37.24;101009.53;4977739;28;20534;-71
2022/11/02 00:20:09;;;;;;;26.97;15.53;;;;;;;40.43;37.01;101011.59;4977903;28;20405;-71
2022/11/02 00:22:36;;;;;;;31.20;15.20;;;;;;;40.57;36.70;100998.66;4944103;28;20414;-71
2022/11/02 00:25:03;;;;;;;24.60;15.77;;;;;;;39.93;37.66;101001.16;4960105;28;20450;-72
2022/11/02 00:27:30;;;;;;;30.27;17.97;;;;;;;39.68;38.42;100999.97;4960077;28;20429;-71
2022/11/02 00:29:58;;;;;;;24.27;16.27;;;;;;;40.36;37.42;100997.69;4959820;28;20426;-71
2022/11/02 00:32:24;;;;;;;27.33;15.87;;;;;;;40.13;37.51;100997.84;4959942;28;20417;-71
2022/11/02 00:34:50;;;;;;;23.23;17.77;;;;;;;40.17;37.59;100990.66;4959758;28;20406;-71
2022/11/02 00:37:17;;;;;;;25.57;16.87;;;;;;;40.04;37.71;100997.03;4959967;28;20410;-71
2022/11/02 00:39:42;;;;;;;18.80;14.33;;;;;;;39.55;38.72;100984.56;4959894;28;20508;-71
2022/11/02 00:42:08;;;;;;;36.83;17.80;;;;;;;39.43;39.16;100982.44;4959719;28;20429;-71
2022/11/02 00:44:34;;;;;;;23.77;14.57;;;;;;;40.04;38.28;100991.63;4977243;28;20507;-72
2022/11/02 00:47:00;;;;;;;29.17;16.97;;;;;;;40.43;37.00;100978.97;4959584;28;20428;-71
2022/11/02 00:49:26;;;;;;;34.97;19.00;;;;;;;40.48;37.55;100968.78;4959762;28;20449;-72
2022/11/02 00:51:52;;;;;;;23.20;15.93;;;;;;;40.44;36.83;100973.22;4959617;28;20362;-71
2022/11/02 00:54:18;;;;;;;21.57;17.23;;;;;;;40.57;36.83;100971.47;4959560;28;20512;-71
2022/11/02 00:56:44;;;;;;;28.63;19.20;;;;;;;40.30;37.05;100978.03;4959852;28;20433;-72
2022/11/02 00:59:10;;;;;;;31.23;21.50;;;;;;;40.49;37.11;100964.13;4959554;28;20800;-71
2022/11/02 01:01:36;;;;;;;25.90;18.50;;;;;;;40.28;37.34;100974.84;4959157;28;20442;-72
2022/11/02 01:04:02;;;;;;;26.40;17.07;;;;;;;40.26;37.04;100977.06;4959448;28;20926;-72
2022/11/02 01:06:28;;;;;;;31.10;17.90;;;;;;;39.90;37.79;100966.44;4959385;28;20473;-71
2022/11/02 01:08:54;;;;;;;22.90;15.83;;;;;;;40.20;37.63;100962.84;4959895;28;20496;-71
2022/11/02 01:11:22;;;;;;;25.10;14.67;;;;;;;40.12;37.58;100960.13;4976836;28;20469;-71
2022/11/02 01:13:53;;;;;;;24.00;14.93;;;;;;;39.93;37.96;100952.25;4959808;28;20412;-71
2022/11/02 01:16:19;;;;;;;23.77;15.47;;;;;;;39.52;38.56;100953.41;4958733;28;20873;-71
2022/11/02 01:18:45;;;;;;;30.20;16.10;;;;;;;39.64;38.54;100952.81;4976729;28;20414;-71
2022/11/02 01:21:11;;;;;;;23.30;15.40;;;;;;;39.54;38.84;100947.69;4959019;28;20454;-71
2022/11/02 01:23:38;;;;;;;20.47;15.10;;;;;;;39.96;38.08;100952.44;4959206;28;20850;-71
2022/11/02 01:26:07;;;;;;;21.50;13.77;;;;;;;40.14;37.45;100950.53;4976250;28;20477;-73
2022/11/02 01:28:33;;;;;;;21.13;14.20;;;;;;;40.24;37.18;100950.22;4959048;28;20445;-73
2022/11/02 01:31:00;;;;;;;28.97;13.97;;;;;;;40.34;37.78;100951.81;4976172;28;20476;-73
2022/11/02 01:33:27;;;;;;;23.23;15.97;;;;;;;40.15;37.54;100938.56;4958912;28;20422;-72
2022/11/02 01:35:53;;;;;;;18.53;12.53;;;;;;;40.10;38.16;100952.31;4958702;28;20943;-71
2022/11/02 01:38:19;;;;;;;22.53;13.70;;;;;;;40.22;37.71;100943.50;4958776;28;20452;-71
2022/11/02 01:40:45;;;;;;;30.77;15.63;;;;;;;40.07;37.79;100941.25;4976500;28;20778;-71
2022/11/02 01:43:21;;;;;;;21.67;17.17;;;;;;;40.10;38.07;100951.50;4958612;28;20516;-71
2022/11/02 01:45:51;;;;;;;23.53;13.73;;;;;;;40.38;37.59;100941.88;4942854;28;20461;-71
2022/11/02 01:48:20;;;;;;;23.13;14.00;;;;;;;39.87;38.44;100954.31;4942861;28;20446;-71
2022/11/02 01:50:47;;;;;;;29.80;13.90;;;;;;;40.26;37.99;100956.13;4942670;28;20997;-71
2022/11/02 01:53:13;;;;;;;24.97;13.23;;;;;;;40.20;37.82;100956.59;4926928;28;20422;-71
2022/11/02 01:55:39;;;;;;;20.10;11.97;;;;;;;40.19;38.45;100955.00;4942872;28;20430;-72
2022/11/02 01:58:09;;;;;;;17.70;12.57;;;;;;;40.04;38.07;100953.56;4958479;28;20418;-72
2022/11/02 02:00:37;;;;;;;22.53;14.30;;;;;;;39.81;38.92;100952.88;4942540;28;20427;-71
2022/11/02 02:03:16;;;;;;;20.47;14.00;;;;;;;39.65;39.38;100949.78;4958047;28;20474;-72
2022/11/02 02:06:05;;;;;;;29.67;13.07;;;;;;;39.80;38.78;100959.44;4958241;28;20869;-71
2022/11/02 02:08:34;;;;;;;27.97;13.60;;;;;;;40.20;38.35;100957.41;4942238;28;21110;-71
2022/11/02 02:11:00;;;;;;;22.00;13.37;;;;;;;40.32;37.91;100956.75;4958483;28;20422;-72
2022/11/02 02:13:28;;;;;;;18.97;13.67;;;;;;;39.74;38.86;100949.81;4958163;28;20935;-72
2022/11/02 02:16:06;;;;;;;27.60;14.70;;;;;;;39.70;39.33;100949.66;4975724;28;20394;-71
2022/11/02 02:18:49;;;;;;;23.07;14.73;;;;;;;40.17;38.83;100954.53;4958016;28;20504;-71
2022/11/02 02:21:34;;;;;;;27.57;14.77;;;;;;;40.46;38.15;100948.44;4957969;28;20423;-72
2022/11/02 02:24:37;;;;;;;30.10;15.67;;;;;;;40.55;38.12;100947.34;4957840;28;20426;-72
2022/11/02 02:27:11;;;;;;;25.23;14.60;;;;;;;40.55;37.72;100952.78;4957994;28;20430;-72
2022/11/02 02:30:04;;;;;;;29.93;18.40;;;;;;;39.89;39.16;100952.06;4957237;28;20430;-71
2022/11/02 02:32:58;;;;;;;27.20;15.30;;;;;;;39.23;40.17;100956.69;4957869;28;20410;-71
2022/11/02 02:35:39;;;;;;;28.90;17.60;;;;;;;39.99;38.89;100942.81;4955784;28;20429;-71
2022/11/02 02:38:11;;;;;;;21.23;14.43;;;;;;;40.25;38.15;100957.25;4957476;28;20503;-73
2022/11/02 02:40:44;;;;;;;25.20;15.00;;;;;;;40.24;38.26;100950.22;4957607;28;20429;-73
2022/11/02 02:43:31;;;;;;;21.30;13.90;;;;;;;40.29;37.76;100955.50;4957553;28;20423;-72
2022/11/02 02:46:09;;;;;;;24.13;15.23;;;;;;;40.43;37.88;100959.97;4957499;28;20544;-72
2022/11/02 02:48:37;;;;;;;27.57;17.40;;;;;;;40.37;37.99;100953.09;4957516;28;20809;-73
2022/11/02 02:51:10;;;;;;;24.73;15.50;;;;;;;39.96;38.56;100957.84;4957462;28;20419;-72
2022/11/02 02:53:51;;;;;;;23.20;13.80;;;;;;;40.31;38.21;100962.53;4957483;28;20415;-73
2022/11/02 02:56:20;;;;;;;24.33;16.10;;;;;;;39.99;38.79;100959.13;4957268;28;20473;-73
2022/11/02 02:58:49;;;;;;;28.80;15.83;;;;;;;40.18;37.96;100959.66;4941728;28;20456;-71
2022/11/02 03:01:17;;;;;;;17.40;14.30;;;;;;;39.82;39.09;100961.81;4975010;28;20907;-71
2022/11/02 03:03:43;;;;;;;35.80;16.33;;;;;;;39.76;38.96;100959.25;4941061;28;20502;-71
2022/11/02 03:06:31;;;;;;;30.43;15.90;;;;;;;40.00;38.53;100950.66;4941675;28;20473;-71
2022/11/02 03:09:11;;;;;;;28.73;16.50;;;;;;;39.46;39.56;100950.03;4957192;28;20477;-71
2022/11/02 03:11:47;;;;;;;31.30;16.50;;;;;;;39.82;38.56;100957.19;4942892;28;20433;-72
2022/11/02 03:14:31;;;;;;;26.37;16.47;;;;;;;39.61;39.15;100958.91;4974793;28;20406;-71
2022/11/02 03:17:14;;;;;;;24.47;16.53;;;;;;;39.53;39.30;100954.19;4956957;28;20419;-71
2022/11/02 03:20:10;;;;;;;44.07;18.50;;;;;;;39.92;38.84;100966.97;4956910;28;20426;-71
2022/11/02 03:22:48;;;;;;;21.20;16.90;;;;;;;39.45;39.56;100972.06;4956971;28;20422;-74
2022/11/02 03:25:26;;;;;;;25.90;17.20;;;;;;;39.12;40.24;100971.59;4956798;28;20584;-72
2022/11/02 03:28:32;;;;;;;29.87;17.77;;;;;;;39.49;39.47;100964.91;4957054;28;20931;-72
2022/11/02 03:31:18;;;;;;;31.13;17.73;;;;;;;39.33;39.58;100967.22;4895829;29;20441;-71
2022/11/02 03:33:56;;;;;;;36.83;18.60;;;;;;;39.71;38.93;100969.44;4951272;29;20530;-71
2022/11/02 03:36:32;;;;;;;33.00;19.47;;;;;;;39.31;39.45;100969.47;4955118;29;20765;-71
2022/11/02 03:39:08;;;;;;;36.83;19.50;;;;;;;39.96;38.60;100970.63;4937543;29;20428;-71
2022/11/02 03:41:36;;;;;;;38.93;18.47;;;;;;;39.35;39.83;100975.88;4937393;29;20426;-71
2022/11/02 03:44:10;;;;;;;34.63;19.03;;;;;;;39.52;39.92;100979.75;4921940;29;20447;-71
2022/11/02 03:46:39;;;;;;;35.73;21.10;;;;;;;39.79;38.88;100973.31;4954907;29;20465;-71
2022/11/02 03:49:09;;;;;;;36.83;21.60;;;;;;;39.90;38.99;100978.16;4937445;29;20423;-71
2022/11/02 03:51:38;;;;;;;30.30;20.77;;;;;;;40.16;38.54;100969.25;4937528;29;20475;-71
2022/11/02 03:54:07;;;;;;;30.40;19.63;;;;;;;39.69;39.07;100977.91;4937347;29;20419;-71
2022/11/02 03:56:44;;;;;;;27.07;17.93;;;;;;;40.02;38.47;100974.78;4937240;29;20423;-71
2022/11/02 03:59:12;;;;;;;34.33;20.53;;;;;;;39.71;38.89;100977.59;4937316;29;20870;-71
2022/11/02 04:01:44;;;;;;;34.23;20.60;;;;;;;39.79;39.22;100976.03;4954463;29;20487;-71
2022/11/02 04:04:11;;;;;;;38.57;19.23;;;;;;;40.08;38.51;100976.25;4954702;29;20490;-71
2022/11/02 04:06:38;;;;;;;27.07;20.37;;;;;;;40.34;38.01;100972.78;4937208;28;20987;-71
2022/11/02 04:09:04;;;;;;;44.73;24.50;;;;;;;39.58;38.92;100973.06;4937265;29;20453;-71
2022/11/02 04:19:44;;;;;;;36.23;23.03;;;;;;;39.98;38.51;100971.13;4954332;29;20800;-71
2022/11/02 04:27:39;;;;;;;29.10;20.73;;;;;;;39.79;38.65;100981.47;4954300;29;20483;-71
2022/11/02 04:30:06;;;;;;;26.50;20.63;;;;;;;40.25;38.29;100981.69;4943774;28;20508;-71
2022/11/02 04:35:23;;;;;;;34.20;19.83;;;;;;;39.49;39.34;100986.63;4973846;28;20419;-71
2022/11/02 04:40:33;;;;;;;32.67;19.70;;;;;;;39.97;38.90;100988.53;4973426;28;20429;-71
2022/11/02 04:42:59;;;;;;;33.30;20.10;;;;;;;40.14;38.45;100991.28;4956117;28;20457;-71
2022/11/02 04:45:25;;;;;;;40.90;22.83;;;;;;;39.82;38.83;100997.91;4973572;28;20843;-71
2022/11/02 04:47:51;;;;;;;30.40;19.30;;;;;;;39.82;39.12;100995.19;4955954;28;20501;-71
2022/11/02 04:50:17;;;;;;;38.93;21.40;;;;;;;40.02;38.77;100997.34;4955977;28;20426;-71
2022/11/02 04:52:43;;;;;;;41.00;22.47;;;;;;;40.15;38.37;100997.53;4957958;28;20509;-71
2022/11/02 04:55:09;;;;;;;31.77;21.30;;;;;;;40.44;38.08;100994.97;4943702;28;21050;-71
2022/11/02 04:57:35;;;;;;;27.50;19.03;;;;;;;40.47;38.14;100999.81;4959528;28;20537;-71
2022/11/02 05:00:02;;;;;;;37.10;23.03;;;;;;;40.09;37.89;100990.66;4959791;28;20418;-71
2022/11/02 05:02:28;;;;;;;29.10;20.47;;;;;;;40.49;38.03;100989.41;4959273;28;20843;-71
2022/11/02 05:04:54;;;;;;;33.13;20.90;;;;;;;39.68;39.30;100991.81;4943488;28;20461;-71
2022/11/02 05:07:20;;;;;;;33.10;20.50;;;;;;;39.28;39.93;100996.41;4959698;28;20428;-71
2022/11/02 05:09:46;;;;;;;37.67;23.60;;;;;;;39.27;39.98;100992.91;4959317;28;20498;-71
2022/11/02 05:12:12;;;;;;;43.20;24.73;;;;;;;39.21;39.71;101000.38;4959374;28;20422;-72
2022/11/02 05:14:38;;;;;;;35.17;22.47;;;;;;;38.47;41.50;101002.72;4959748;28;20270;-72
2022/11/02 05:17:03;;;;;;;34.90;23.57;;;;;;;39.29;40.58;100992.59;4959397;28;20923;-72
2022/11/02 05:19:29;;;;;;;35.03;23.43;;;;;;;39.38;39.78;100998.88;4958755;28;20187;-72
2022/11/02 05:21:55;;;;;;;34.03;24.20;;;;;;;39.33;39.84;101002.50;4959103;28;20415;-71
2022/11/02 05:24:21;;;;;;;35.77;23.20;;;;;;;39.44;39.93;101008.47;4959009;28;20509;-72
2022/11/02 05:26:47;;;;;;;41.80;24.37;;;;;;;39.94;39.09;101010.88;4959073;28;20526;-71
2022/11/02 05:29:13;;;;;;;42.70;25.33;;;;;;;39.84;38.78;101011.19;4958820;28;20453;-70
2022/11/02 05:31:39;;;;;;;38.83;22.90;;;;;;;38.56;41.31;101010.94;4958866;28;20870;-70
2022/11/02 05:34:05;;;;;;;33.57;22.23;;;;;;;39.31;40.48;101002.03;4957427;28;20498;-71
2022/11/02 05:36:31;;;;;;;42.10;23.67;;;;;;;38.07;42.51;101009.81;4958289;28;20448;-80
2022/11/02 05:38:57;;;;;;;31.70;22.90;;;;;;;38.95;40.90;101011.06;4958457;28;20498;-71
2022/11/02 05:41:23;;;;;;;29.80;22.70;;;;;;;39.23;40.19;101016.38;4955232;28;20498;-71
2022/11/02 05:43:49;;;;;;;40.97;25.60;;;;;;;39.61;39.45;101013.22;4940145;29;20534;-71
2022/11/02 05:46:15;;;;;;;43.30;22.70;;;;;;;39.16;40.15;101021.41;4923722;29;20203;-71
2022/11/02 05:48:41;;;;;;;47.40;26.20;;;;;;;39.41;39.42;101025.38;4939438;29;20451;-71
2022/11/02 05:51:08;;;;;;;27.40;20.63;;;;;;;38.63;40.90;101031.06;4957025;29;20396;-71
2022/11/02 05:53:37;;;;;;;31.97;23.13;;;;;;;38.95;40.65;101035.47;4939229;29;20439;-71
2022/11/02 05:56:05;;;;;;;32.43;22.97;;;;;;;39.20;40.75;101041.41;4939380;29;20914;-69
2022/11/02 05:58:32;;;;;;;33.53;24.03;;;;;;;38.49;41.20;101053.88;4969070;28;20449;-68
2022/11/02 06:01:03;;;;;;;43.23;26.90;;;;;;;38.56;41.39;101049.69;4941977;28;20425;-70
2022/11/02 06:03:30;;;;;;;43.93;25.03;;;;;;;39.19;40.26;101059.59;4946234;28;20475;-68
2022/11/02 06:06:02;;;;;;;45.03;28.07;;;;;;;39.34;39.78;101058.38;4957176;28;20473;-68
2022/11/02 06:08:32;;;;;;;39.37;27.47;;;;;;;39.58;39.39;101060.75;4965817;28;20413;-68
2022/11/02 06:10:58;;;;;;;41.63;27.07;;;;;;;39.43;39.56;101063.88;4980598;28;20426;-68
2022/11/02 06:13:24;;;;;;;38.27;31.00;;;;;;;38.93;40.52;101070.25;4984493;28;20476;-67
2022/11/02 06:15:50;;;;;;;39.87;24.70;;;;;;;39.17;40.15;101071.88;4957343;28;20502;-67
2022/11/02 06:18:16;;;;;;;46.40;28.70;;;;;;;39.08;40.18;101079.13;4962589;28;20449;-68
2022/11/02 06:20:42;;;;;;;41.87;25.70;;;;;;;39.13;40.37;101087.13;4979452;28;20480;-67
2022/11/02 06:23:08;;;;;;;31.40;23.70;;;;;;;39.39;39.86;101079.19;4973303;28;20848;-67
2022/11/02 06:25:34;;;;;;;40.90;26.97;;;;;;;39.50;39.60;101088.66;4982011;28;20333;-68
2022/11/02 06:27:59;;;;;;;30.43;23.97;;;;;;;39.89;39.42;101085.16;4957891;28;20533;-69
2022/11/02 06:30:26;;;;;;;36.80;25.30;;;;;;;39.30;39.80;101094.63;4942208;28;20513;-68
2022/11/02 06:32:53;;;;;;;36.60;23.30;;;;;;;39.28;39.69;101096.81;4958418;28;20770;-68
2022/11/02 06:35:21;;;;;;;40.07;22.90;;;;;;;39.80;39.27;101089.00;4926220;28;20411;-67
2022/11/02 06:37:46;;;;;;;41.27;24.43;;;;;;;39.69;39.29;101100.13;4942194;28;20452;-67
2022/11/02 06:40:14;;;;;;;30.53;22.77;;;;;;;40.12;38.52;101104.13;4939937;28;20419;-69
2022/11/02 06:42:40;;;;;;;46.70;26.63;;;;;;;40.09;38.12;101104.78;4960768;28;20421;-69
2022/11/02 06:45:07;;;;;;;30.20;22.97;;;;;;;40.39;37.99;101108.50;4958608;28;20565;-69
2022/11/02 06:47:35;;;;;;;38.17;24.33;;;;;;;40.61;37.78;101113.03;4956323;28;20842;-69
2022/11/02 06:50:02;;;;;;;34.20;23.13;;;;;;;40.56;37.37;101111.28;4973877;28;20414;-69
2022/11/02 06:52:29;;;;;;;38.17;27.13;;;;;;;39.92;38.84;101121.78;4954808;28;20415;-68
2022/11/02 06:54:55;;;;;;;40.47;23.87;;;;;;;40.43;37.63;101112.19;4955000;28;20418;-68
2022/11/02 06:57:21;;;;;;;37.53;22.17;;;;;;;40.75;37.18;101119.91;4955032;28;20418;-67
2022/11/02 06:59:48;;;;;;;34.77;24.80;;;;;;;40.90;36.82;101123.28;4972145;28;20589;-68
2022/11/02 07:02:14;;;;;;;39.60;26.40;;;;;;;40.99;36.83;101121.38;4972009;28;20462;-68
2022/11/02 07:04:39;;;;;;;45.83;24.70;;;;;;;41.07;36.90;101128.75;4954202;28;20449;-69
2022/11/02 07:07:05;;;;;;;35.03;23.20;;;;;;;41.05;36.58;101130.97;4952258;28;20506;-69
2022/11/02 07:09:31;;;;;;;33.83;23.07;;;;;;;41.21;36.95;101117.69;4956182;28;20557;-69
2022/11/02 07:11:57;;;;;;;43.03;24.60;;;;;;;41.19;36.47;101128.06;4954837;28;20454;-69
2022/11/02 07:14:23;;;;;;;41.03;24.03;;;;;;;41.09;36.76;101131.94;4953053;28;20423;-69
2022/11/02 07:16:49;;;;;;;36.47;24.27;;;;;;;41.01;37.04;101130.84;4956009;28;20233;-68
2022/11/02 07:19:15;;;;;;;43.13;26.60;;;;;;;40.94;36.85;101137.88;4954544;28;20823;-68
2022/11/02 07:21:41;;;;;;;38.37;23.43;;;;;;;41.16;36.57;101139.63;4955549;28;20989;-69
2022/11/02 07:24:07;;;;;;;45.03;25.53;;;;;;;41.06;36.61;101146.19;4973742;28;20170;-69
2022/11/02 07:26:33;;;;;;;36.13;20.60;;;;;;;41.15;36.80;101144.28;4973662;28;20466;-69
2022/11/02 07:28:59;;;;;;;31.10;22.43;;;;;;;41.40;36.29;101144.59;4948541;28;20421;-69
2022/11/02 07:31:25;;;;;;;34.07;23.53;;;;;;;41.05;36.56;101144.59;4956790;28;20434;-68
2022/11/02 07:33:51;;;;;;;35.23;23.70;;;;;;;40.83;37.62;101144.75;4957402;28;20190;-68
2022/11/02 07:36:17;;;;;;;36.80;24.07;;;;;;;40.69;37.43;101134.78;4974328;28;20403;-68
2022/11/02 07:38:43;;;;;;;34.10;23.13;;;;;;;40.88;37.52;101139.13;4957477;28;20226;-70
2022/11/02 07:41:09;;;;;;;28.73;21.00;;;;;;;40.35;37.86;101140.16;4964874;28;20457;-69
2022/11/02 07:43:35;;;;;;;30.40;21.50;;;;;;;40.62;37.68;101145.34;4964503;28;20357;-69
2022/11/02 07:46:02;;;;;;;30.90;23.30;;;;;;;40.83;37.04;101152.91;4958777;28;20463;-69
2022/11/02 07:48:28;;;;;;;34.97;20.67;;;;;;;40.77;37.17;101146.81;4962982;28;20446;-68
2022/11/02 07:50:58;;;;;;;33.17;19.77;;;;;;;40.91;37.09;101154.84;4970240;28;20457;-72
2022/11/02 07:53:24;;;;;;;37.87;20.17;;;;;;;40.38;38.00;101153.91;4952670;29;20525;-72
2022/11/02 07:55:50;;;;;;;32.97;20.87;;;;;;;39.64;39.24;101157.28;4937257;29;20924;-72
2022/11/02 07:58:16;;;;;;;28.67;18.80;;;;;;;39.95;39.09;101151.03;4937324;29;20427;-73
2022/11/02 08:00:42;;;;;;;32.30;19.80;;;;;;;40.60;37.81;101160.41;4936973;29;20478;-72
2022/11/02 08:03:09;;;;;;;27.93;19.70;;;;;;;40.49;37.97;101160.69;4976139;28;20469;-71
2022/11/02 08:05:40;;;;;;;32.97;22.20;;;;;;;40.68;37.90;101160.41;4975548;28;20587;-71
2022/11/02 08:08:14;;;;;;;35.90;22.30;;;;;;;39.83;39.04;101158.97;4975709;28;20422;-71
2022/11/02 08:10:41;;;;;;;45.90;23.20;;;;;;;40.87;37.58;101157.38;4960389;28;20472;-71
2022/11/02 08:13:09;;;;;;;32.80;18.63;;;;;;;41.22;37.29;101166.34;4975673;28;20541;-71
2022/11/02 08:15:36;;;;;;;27.27;19.10;;;;;;;41.12;37.39;101161.22;4993400;28;20879;-71
2022/11/02 08:18:03;;;;;;;24.93;17.80;;;;;;;40.74;38.22;101166.47;4975448;28;20984;-71
2022/11/02 08:20:30;;;;;;;27.67;18.23;;;;;;;40.66;38.38;101165.38;4975735;28;20425;-71
2022/11/02 08:22:56;;;;;;;25.03;18.53;;;;;;;39.83;39.53;101164.41;4972417;28;20457;-72
2022/11/02 08:25:23;;;;;;;27.40;17.20;;;;;;;39.84;39.59;101160.56;4966313;28;20472;-73
2022/11/02 08:27:49;;;;;;;30.97;14.73;;;;;;;39.71;39.68;101171.19;4960254;28;20449;-71
2022/11/02 08:30:15;;;;;;;29.00;13.80;;;;;;;40.32;38.69;101168.78;4971330;28;20813;-72
2022/11/02 08:32:41;;;;;;;22.07;15.17;;;;;;;40.16;38.86;101175.78;4967007;28;20434;-72
2022/11/02 08:35:07;;;;;;;28.27;16.20;;;;;;;40.17;39.37;101178.16;4967427;28;20434;-75
2022/11/02 08:37:33;;;;;;;34.57;15.27;;;;;;;40.10;39.71;101171.59;4962598;28;20445;-71
2022/11/02 08:39:59;;;;;;;27.93;15.63;;;;;;;40.14;39.61;101176.06;4943161;28;20445;-72
2022/11/02 09:08:04;;;;;;;18.87;14.73;;;;;;;40.30;40.30;101165.56;5116074;27;20564;-71
2022/11/02 09:10:32;;;;;;;21.07;15.23;;;;;;;41.20;38.76;101163.16;5130510;28;20438;-72
2022/11/02 09:13:00;;;;;;;29.83;15.17;;;;;;;40.44;40.27;101171.69;5111527;28;20467;-71
2022/11/02 09:15:26;;;;;;;17.17;13.63;;;;;;;40.98;38.54;101168.78;5121714;28;20463;-69
2022/11/02 09:17:52;;;;;;;27.37;15.80;;;;;;;40.31;40.19;101166.38;5092003;28;20424;-71
2022/11/02 09:20:20;;;;;;;21.37;14.00;;;;;;;40.19;40.07;101158.81;5112167;28;20514;-72
2022/11/02 09:22:46;;;;;;;26.83;14.67;;;;;;;40.55;39.69;101140.38;5111805;28;20452;-70
2022/11/02 09:25:13;;;;;;;30.40;14.80;;;;;;;40.90;38.80;101145.88;5130179;28;20411;-70
2022/11/02 09:27:40;;;;;;;26.07;14.77;;;;;;;41.02;38.66;101145.25;5111600;28;20949;-68
2022/11/02 09:30:07;;;;;;;22.80;15.10;;;;;;;40.40;39.62;101148.19;5111562;28;20423;-71
2022/11/02 09:32:33;;;;;;;29.97;15.90;;;;;;;40.93;38.74;101149.88;5102331;28;20424;-71
2022/11/02 09:35:01;;;;;;;20.53;12.20;;;;;;;41.59;37.73;101150.44;5109277;28;20432;-69
2022/11/02 09:37:27;;;;;;;19.43;15.33;;;;;;;41.69;37.55;101146.59;5091339;28;20956;-72
2022/11/02 09:39:54;;;;;;;31.07;15.43;;;;;;;42.11;37.13;101136.63;5104745;28;20562;-71
2022/11/02 09:42:27;;;;;;;23.87;13.50;;;;;;;41.78;37.26;101145.44;5129790;28;20415;-68
2022/11/02 09:45:00;;;;;;;22.93;13.53;;;;;;;42.36;36.98;101135.72;5111394;28;20457;-67
2022/11/02 09:47:29;;;;;;;30.80;15.30;;;;;;;42.11;37.04;101133.91;5102241;28;20436;-68
2022/11/02 09:50:00;;;;;;;23.20;13.63;;;;;;;42.07;36.85;101127.53;5089148;28;20448;-68
2022/11/02 09:52:36;;;;;;;26.43;14.20;;;;;;;42.09;37.24;101134.25;5083619;28;20464;-68
2022/11/02 09:55:10;;;;;;;24.10;14.70;;;;;;;42.21;36.69;101133.56;5090779;28;20412;-68
2022/11/02 09:57:37;;;;;;;18.80;13.90;;;;;;;42.31;36.44;101133.19;5100677;28;21064;-68
2022/11/02 10:00:04;;;;;;;28.33;14.87;;;;;;;42.49;36.45;101135.81;5107632;28;20478;-67
2022/11/02 10:03:15;;;;;;;29.37;17.33;;;;;;;42.50;36.78;101131.94;5108327;28;20474;-67
2022/11/02 10:05:54;;;;;;;31.27;15.77;;;;;;;42.26;37.17;101127.13;5119800;28;20918;-67
2022/11/02 10:08:29;;;;;;;30.50;15.83;;;;;;;42.08;37.02;101129.13;5116671;28;20485;-67
2022/11/02 10:10:58;;;;;;;27.93;15.60;;;;;;;42.36;36.87;101127.56;5106050;27;20891;-68
2022/11/02 10:13:37;;;;;;;24.83;14.40;;;;;;;42.09;37.42;101119.81;5102941;27;20424;-69
2022/11/02 10:16:10;;;;;;;32.00;14.53;;;;;;;42.02;37.56;101123.06;5113115;28;20505;-69
2022/11/02 10:18:38;;;;;;;21.13;13.87;;;;;;;42.40;36.67;101120.28;5102972;28;20939;-68
2022/11/02 10:21:19;;;;;;;27.27;11.47;;;;;;;42.31;36.00;101122.28;5114028;28;20428;-69
2022/11/02 10:23:57;;;;;;;37.23;15.80;;;;;;;42.31;36.38;101116.84;5114010;28;20532;-69
2022/11/02 10:26:28;;;;;;;32.20;10.97;;;;;;;42.29;36.02;101110.91;5114017;28;20506;-69
2022/11/02 10:29:40;;;;;;;17.30;12.13;;;;;;;41.84;36.29;101103.28;5097301;28;20424;-69
2022/11/02 10:32:10;;;;;;;32.63;12.67;;;;;;;42.27;35.79;101098.75;5109858;28;20851;-70
2022/11/02 10:34:37;;;;;;;23.43;12.67;;;;;;;42.19;35.84;101097.66;5099406;28;20913;-69
2022/11/02 10:37:14;;;;;;;24.87;12.30;;;;;;;42.31;35.98;101102.41;5113747;28;20479;-69
2022/11/02 10:40:02;;;;;;;35.27;14.40;;;;;;;42.33;35.64;101095.47;5115016;27;20416;-70
2022/11/02 10:42:55;;;;;;;25.83;13.73;;;;;;;42.16;35.87;101097.50;5105742;28;20421;-71
2022/11/02 10:46:03;;;;;;;30.27;12.50;;;;;;;42.28;35.83;101092.94;5108422;28;20980;-70
2022/11/02 10:48:38;;;;;;;33.40;14.17;;;;;;;42.13;35.97;101083.41;5110667;28;20432;-70
2022/11/02 10:51:09;;;;;;;23.77;13.20;;;;;;;42.22;36.02;101077.91;5113137;28;20458;-69
2022/11/02 10:53:40;;;;;;;26.10;13.67;;;;;;;42.13;36.63;101077.94;5095354;28;20417;-69
2022/11/02 10:56:23;;;;;;;31.70;12.90;;;;;;;42.32;36.06;101080.25;5090156;28;20428;-69
2022/11/02 10:58:55;;;;;;;17.97;11.97;;;;;;;41.94;36.43;101074.06;5092789;28;20444;-71
2022/11/02 11:01:21;;;;;;;26.83;12.47;;;;;;;42.09;37.21;101073.47;5082866;28;20933;-69
2022/11/02 11:04:05;;;;;;;24.23;11.70;;;;;;;42.27;36.63;101064.09;5075598;28;20431;-69
2022/11/02 11:06:42;;;;;;;23.47;12.40;;;;;;;41.81;37.31;101065.81;5072355;28;20230;-70
2022/11/02 11:09:16;;;;;;;23.97;12.60;;;;;;;41.92;37.46;101060.75;5087869;28;20432;-70
2022/11/02 11:11:51;;;;;;;19.07;11.63;;;;;;;42.30;36.54;101055.25;5110548;28;20443;-69
2022/11/02 11:14:21;;;;;;;34.03;11.60;;;;;;;42.35;36.91;101052.31;5102908;28;20469;-69
2022/11/02 11:16:53;;;;;;;21.50;11.50;;;;;;;42.29;36.40;101042.72;5104323;28;20425;-69
2022/11/02 11:19:34;;;;;;;25.03;12.40;;;;;;;42.00;37.02;101042.78;5091573;28;20425;-69
2022/11/02 11:22:01;;;;;;;23.83;11.10;;;;;;;41.91;37.22;101034.63;5087441;28;20974;-70
2022/11/02 11:24:33;;;;;;;25.03;11.00;;;;;;;42.28;36.64;101032.97;5109136;28;20523;-70
2022/11/02 11:27:00;;;;;;;22.87;11.40;;;;;;;42.35;36.58;101033.22;5108170;28;20912;-67
2022/11/02 11:29:30;;;;;;;33.73;14.23;;;;;;;42.07;36.92;101021.25;5109123;28;20431;-72
2022/11/02 11:31:57;;;;;;;22.43;11.90;;;;;;;42.35;36.59;101018.78;5110486;28;20444;-71
2022/11/02 11:34:27;;;;;;;23.67;12.10;;;;;;;42.17;37.00;101023.59;5110700;28;20424;-71
2022/11/02 11:37:04;;;;;;;29.53;14.43;;;;;;;42.43;36.88;101017.94;5109623;28;20442;-71
2022/11/02 11:39:32;;;;;;;20.57;13.00;;;;;;;42.57;36.44;101012.19;5111518;28;20427;-71
2022/11/02 11:41:59;;;;;;;29.73;14.33;;;;;;;42.60;36.41;101003.38;5101368;28;20420;-70
2022/11/02 11:44:25;;;;;;;30.20;14.57;;;;;;;42.58;36.63;101000.97;5082474;28;20876;-70
2022/11/02 11:46:56;;;;;;;23.10;13.57;;;;;;;42.81;36.52;100995.94;5074695;28;20522;-68
2022/11/02 11:49:35;;;;;;;21.60;11.90;;;;;;;42.57;36.33;100991.22;5107019;28;20808;-68
2022/11/02 11:52:02;;;;;;;25.57;12.23;;;;;;;42.36;36.49;100993.16;5105267;28;20436;-67
2022/11/02 11:54:31;;;;;;;30.60;12.27;;;;;;;42.43;36.68;100998.06;5096137;28;20433;-70
2022/11/02 11:56:59;;;;;;;18.53;12.13;;;;;;;42.53;36.47;100992.19;5090861;28;20452;-67
2022/11/02 11:59:43;;;;;;;32.00;13.07;;;;;;;42.33;36.82;100977.44;5094073;28;20433;-70
2022/11/02 12:02:24;;;;;;;25.37;12.20;;;;;;;42.31;36.59;100969.59;5093562;28;20424;-70
2022/11/02 12:04:57;;;;;;;25.67;13.10;;;;;;;42.15;37.46;100960.41;5100016;28;20420;-71
2022/11/02 12:08:07;;;;;;;16.60;12.53;;;;;;;42.57;36.68;100963.09;5094653;28;20477;-70